Time;durP1;ratioP1;P1;durP2;ratioP2;P2;SDS_P1;SDS_P2;PMS_P1;PMS_P2;Temp;Humidity;BMP_temperature;BMP_pressure;BME280_temperature;BME280_humidity;BME280_pressure;Samples;Min_cycle;Max_cycle;Signal;HPM_P1;HPM_P2
2023/05/17 00:02:05;;;;;;;5.80;3.95;;;;;;;14.43;100.00;97676.25;5050650;28;20178;-62
2023/05/17 00:04:32;;;;;;;8.88;4.32;;;;;;;14.32;100.00;97674.69;5050738;28;20239;-62
2023/05/17 00:06:57;;;;;;;10.13;4.80;;;;;;;14.32;100.00;97672.09;5050646;28;20182;-62
2023/05/17 00:09:22;;;;;;;6.30;4.55;;;;;;;14.22;100.00;97666.09;5050588;28;20209;-62
2023/05/17 00:11:48;;;;;;;6.05;5.13;;;;;;;14.04;100.00;97635.78;5050552;28;20186;-62
2023/05/17 00:14:13;;;;;;;6.38;4.85;;;;;;;14.00;100.00;97626.66;5050516;28;20644;-62
2023/05/17 00:16:39;;;;;;;8.65;5.45;;;;;;;14.17;100.00;97654.47;5050393;28;20220;-62
2023/05/17 00:19:04;;;;;;;11.02;7.55;;;;;;;14.21;100.00;97658.44;5050427;28;20273;-62
2023/05/17 00:21:30;;;;;;;15.15;8.07;;;;;;;13.87;100.00;97584.53;5050554;28;20726;-62
2023/05/17 00:23:55;;;;;;;10.98;7.60;;;;;;;14.33;100.00;97662.47;5052739;28;20173;-62
2023/05/17 00:26:21;;;;;;;13.57;9.15;;;;;;;14.11;100.00;97600.44;5052717;28;20174;-62
2023/05/17 00:28:46;;;;;;;16.55;11.05;;;;;;;14.32;100.00;97604.44;5052732;28;20549;-62
2023/05/17 00:31:11;;;;;;;17.67;11.00;;;;;;;14.44;100.00;97625.84;5050175;28;20709;-62
2023/05/17 00:33:37;;;;;;;12.27;8.32;;;;;;;14.43;100.00;97619.00;5050216;28;20225;-62
2023/05/17 00:36:02;;;;;;;16.13;8.30;;;;;;;14.50;100.00;97630.44;5050072;28;20266;-62
2023/05/17 00:38:28;;;;;;;13.13;9.00;;;;;;;14.44;100.00;97620.63;5050134;28;20178;-62
2023/05/17 00:40:53;;;;;;;10.27;7.35;;;;;;;14.70;100.00;97656.19;5050111;28;20174;-62
2023/05/17 00:43:19;;;;;;;8.45;5.40;;;;;;;14.35;100.00;97577.28;5050033;28;20189;-62
2023/05/17 00:45:47;;;;;;;9.32;6.60;;;;;;;14.50;100.00;97607.03;5050014;28;20252;-62
2023/05/17 00:48:13;;;;;;;10.48;6.97;;;;;;;14.37;100.00;97577.94;5049968;28;20189;-62
2023/05/17 00:50:39;;;;;;;13.00;6.60;;;;;;;14.65;100.00;97615.97;5050244;28;20601;-62
2023/05/17 00:53:05;;;;;;;6.43;4.95;;;;;;;14.92;100.00;97655.75;5049952;28;20277;-62
2023/05/17 00:55:31;;;;;;;10.82;4.85;;;;;;;14.86;100.00;97650.31;5049808;28;20679;-62
2023/05/17 00:57:56;;;;;;;7.95;4.60;;;;;;;15.05;100.00;97676.22;5049876;28;20173;-62
2023/05/17 01:00:22;;;;;;;4.93;4.30;;;;;;;15.06;100.00;97703.91;5049790;28;20639;-62
2023/05/17 01:02:48;;;;;;;5.90;4.22;;;;;;;15.02;100.00;97687.75;5049864;28;20182;-62
2023/05/17 01:05:14;;;;;;;5.50;4.32;;;;;;;14.90;100.00;97673.31;5049433;28;20181;-62
2023/05/17 01:07:39;;;;;;;5.80;4.10;;;;;;;14.78;100.00;97648.47;5049986;28;20185;-62
2023/05/17 01:10:06;;;;;;;5.97;4.28;;;;;;;14.67;100.00;97629.63;5052101;28;20253;-62
2023/05/17 01:12:35;;;;;;;8.18;4.57;;;;;;;14.83;100.00;97680.09;5052336;28;20272;-62
2023/05/17 01:15:06;;;;;;;5.30;4.13;;;;;;;14.52;100.00;97684.00;5052008;28;20232;-62
2023/05/17 01:17:57;;;;;;;6.00;5.40;;;;;;;14.41;100.00;97663.38;5052044;28;20603;-62
2023/05/17 01:20:36;;;;;;;5.47;4.15;;;;;;;14.43;100.00;97677.09;5052048;28;20170;-62
2023/05/17 01:23:25;;;;;;;5.72;4.15;;;;;;;14.27;100.00;97678.69;5052126;28;20636;-62
2023/05/17 01:26:03;;;;;;;7.88;4.32;;;;;;;14.05;100.00;97660.84;5052025;28;20162;-62
2023/05/17 01:28:30;;;;;;;5.22;4.07;;;;;;;13.72;100.00;97604.19;5051996;28;20168;-62
2023/05/17 01:31:00;;;;;;;6.80;5.15;;;;;;;13.48;100.00;97609.09;5051894;28;20169;-62
2023/05/17 01:33:26;;;;;;;8.52;5.32;;;;;;;13.46;100.00;97598.00;5051870;28;20170;-62
2023/05/17 01:35:51;;;;;;;6.55;4.65;;;;;;;13.29;100.00;97559.78;5051803;28;20711;-62
2023/05/17 01:38:17;;;;;;;10.60;5.53;;;;;;;13.65;100.00;97579.75;5051838;28;20174;-62
2023/05/17 01:40:51;;;;;;;8.85;5.97;;;;;;;13.99;100.00;97618.00;5051850;28;20196;-62
2023/05/17 01:43:23;;;;;;;7.82;5.70;;;;;;;13.66;100.00;97563.19;5051561;28;20169;-62
2023/05/17 01:46:03;;;;;;;7.85;5.43;;;;;;;13.81;100.00;97587.72;5029515;28;20198;-62
2023/05/17 01:48:38;;;;;;;10.32;5.43;;;;;;;13.73;100.00;97585.84;5029535;28;20177;-62
2023/05/17 01:51:04;;;;;;;8.95;6.25;;;;;;;13.09;100.00;97527.88;5029402;28;20190;-62
2023/05/17 01:53:37;;;;;;;7.45;6.30;;;;;;;13.21;100.00;97575.25;5029467;28;20248;-62
2023/05/17 01:56:07;;;;;;;10.30;6.60;;;;;;;13.32;100.00;97608.84;5029391;28;20203;-62
2023/05/17 01:58:42;;;;;;;8.52;6.22;;;;;;;13.43;100.00;97613.88;5029242;28;20673;-62
2023/05/17 02:01:09;;;;;;;9.80;6.72;;;;;;;13.29;100.00;97581.38;5029382;28;20733;-62
2023/05/17 02:03:34;;;;;;;12.13;6.60;;;;;;;13.60;100.00;97616.53;5029582;28;20573;-62
2023/05/17 02:06:00;;;;;;;9.10;6.28;;;;;;;13.43;100.00;97619.09;5029354;28;20187;-62
2023/05/17 02:08:25;;;;;;;13.35;7.30;;;;;;;13.32;100.00;97582.88;5029259;28;20182;-62
2023/05/17 02:10:50;;;;;;;12.35;6.45;;;;;;;13.26;100.00;97554.88;5029274;28;20210;-62
2023/05/17 02:13:16;;;;;;;13.57;7.35;;;;;;;13.88;100.00;97640.81;5029268;28;20190;-62
2023/05/17 02:15:41;;;;;;;12.70;8.07;;;;;;;13.91;100.00;97643.09;5030097;28;20296;-62
2023/05/17 02:18:07;;;;;;;12.77;7.53;;;;;;;13.56;100.00;97601.38;5054233;28;20178;-62
2023/05/17 02:20:32;;;;;;;14.07;7.50;;;;;;;13.63;100.00;97624.06;5055081;28;20696;-62
2023/05/17 02:22:57;;;;;;;9.73;7.63;;;;;;;13.64;100.00;97627.50;5054685;28;20185;-62
2023/05/17 02:25:23;;;;;;;13.07;8.45;;;;;;;13.12;100.00;97552.75;5054716;28;20176;-62
2023/05/17 02:27:48;;;;;;;12.60;7.97;;;;;;;13.01;100.00;97545.13;5054912;28;20223;-62
2023/05/17 02:30:15;;;;;;;11.45;7.93;;;;;;;13.52;100.00;97608.66;5055004;28;20174;-62
2023/05/17 02:32:41;;;;;;;10.55;7.78;;;;;;;13.13;100.00;97538.78;5054841;28;20173;-62
2023/05/17 02:35:08;;;;;;;11.68;8.13;;;;;;;13.26;100.00;97553.09;5054753;28;20189;-62
2023/05/17 02:37:33;;;;;;;9.18;7.15;;;;;;;13.47;100.00;97574.47;5054733;28;20180;-62
2023/05/17 02:39:58;;;;;;;10.68;7.90;;;;;;;13.45;100.00;97570.38;5054946;28;20174;-62
2023/05/17 02:42:24;;;;;;;12.77;8.27;;;;;;;14.03;100.00;97644.53;5054697;28;20185;-62
2023/05/17 02:44:51;;;;;;;14.45;7.53;;;;;;;13.83;100.00;97617.81;5054637;28;20178;-62
2023/05/17 02:47:19;;;;;;;13.25;8.07;;;;;;;14.12;100.00;97648.91;5054581;28;20185;-62
2023/05/17 02:49:46;;;;;;;11.50;8.05;;;;;;;13.89;100.00;97614.63;5054517;28;20212;-62
2023/05/17 02:52:11;;;;;;;12.60;7.35;;;;;;;14.27;100.00;97663.91;5054501;28;20173;-62
2023/05/17 02:54:36;;;;;;;8.25;6.28;;;;;;;14.20;100.00;97682.81;5054424;28;20170;-62
2023/05/17 02:57:03;;;;;;;10.18;6.20;;;;;;;14.01;100.00;97667.28;5053118;28;20214;-62
2023/05/17 02:59:28;;;;;;;11.43;6.10;;;;;;;13.86;100.00;97627.09;5054251;28;20225;-62
2023/05/17 03:01:53;;;;;;;9.80;5.47;;;;;;;13.62;100.00;97625.03;5054288;28;20177;-62
2023/05/17 03:04:19;;;;;;;8.10;5.40;;;;;;;13.44;100.00;97631.09;5054288;28;20181;-62
2023/05/17 03:06:44;;;;;;;6.45;5.85;;;;;;;13.71;100.00;97711.75;5054216;28;20215;-62
2023/05/17 03:09:10;;;;;;;9.07;5.18;;;;;;;13.78;100.00;97715.41;5054152;28;20209;-62
2023/05/17 03:11:35;;;;;;;7.68;6.00;;;;;;;13.22;100.00;97629.66;5054160;28;20177;-62
2023/05/17 03:14:01;;;;;;;10.07;5.80;;;;;;;13.26;100.00;97663.97;5054085;28;20177;-62
2023/05/17 03:16:26;;;;;;;7.60;5.93;;;;;;;13.30;100.00;97712.91;5031501;28;20214;-62
2023/05/17 03:18:52;;;;;;;8.73;6.43;;;;;;;13.03;100.00;97647.06;5031719;28;20269;-62
2023/05/17 03:21:17;;;;;;;14.48;6.25;;;;;;;13.40;100.00;97721.53;5031631;28;20183;-62
2023/05/17 03:23:42;;;;;;;9.35;5.78;;;;;;;12.82;100.00;97642.00;5031557;28;20269;-62
2023/05/17 03:26:08;;;;;;;8.35;6.43;;;;;;;13.44;100.00;97714.25;5031516;28;20186;-62
2023/05/17 03:28:33;;;;;;;14.65;7.38;;;;;;;13.23;100.00;97664.25;5031215;28;20272;-62
2023/05/17 03:30:59;;;;;;;7.88;6.53;;;;;;;13.23;100.00;97695.41;5031404;28;20577;-62
2023/05/17 03:33:24;;;;;;;11.45;6.70;;;;;;;13.12;100.00;97667.81;5031379;28;20183;-62
2023/05/17 03:35:50;;;;;;;11.38;7.13;;;;;;;13.10;100.00;97702.69;5031262;28;20736;-62
2023/05/17 03:38:15;;;;;;;12.68;7.28;;;;;;;13.15;100.00;97719.50;5031275;28;20189;-62
2023/05/17 03:40:41;;;;;;;11.57;7.32;;;;;;;13.28;100.00;97737.38;5031226;28;20183;-62
2023/05/17 03:43:06;;;;;;;10.18;7.30;;;;;;;13.31;100.00;97729.34;5031168;28;20794;-62
2023/05/17 03:45:32;;;;;;;12.65;8.48;;;;;;;13.38;100.00;97707.03;5031065;28;20742;-62
2023/05/17 03:47:57;;;;;;;10.70;8.65;;;;;;;13.63;100.00;97719.41;5046944;28;20264;-62
2023/05/17 03:50:23;;;;;;;12.13;8.02;;;;;;;13.65;100.00;97730.50;5053307;28;20169;-62
2023/05/17 03:52:48;;;;;;;12.18;8.05;;;;;;;12.98;100.00;97649.25;5052963;28;20174;-62
2023/05/17 03:55:13;;;;;;;11.18;8.73;;;;;;;13.37;100.00;97726.19;5053126;28;20196;-62
2023/05/17 03:57:39;;;;;;;13.95;8.55;;;;;;;13.49;100.00;97727.66;5053196;28;20178;-62
2023/05/17 04:00:19;;;;;;;13.60;9.52;;;;;;;13.45;100.00;97710.69;5053302;28;20315;-62
2023/05/17 04:02:45;;;;;;;13.63;9.27;;;;;;;13.66;100.00;97717.34;5053088;28;20169;-62
2023/05/17 04:05:12;;;;;;;14.40;9.18;;;;;;;13.77;100.00;97737.19;5053027;28;20181;-62
2023/05/17 04:07:37;;;;;;;19.17;10.10;;;;;;;13.44;100.00;97689.13;5053022;28;20200;-62
2023/05/17 04:10:03;;;;;;;15.20;9.23;;;;;;;13.34;100.00;97666.69;5052971;28;20632;-62
2023/05/17 04:12:29;;;;;;;15.65;9.85;;;;;;;13.54;100.00;97689.09;5053171;28;20601;-63
2023/05/17 04:14:57;;;;;;;14.88;10.50;;;;;;;13.56;100.00;97679.34;5052790;28;20173;-63
2023/05/17 04:17:23;;;;;;;16.17;10.00;;;;;;;13.84;100.00;97709.66;5053120;28;20785;-63
2023/05/17 04:19:48;;;;;;;18.10;10.90;;;;;;;13.96;100.00;97731.91;5052483;28;20679;-62
2023/05/17 04:22:13;;;;;;;20.73;10.85;;;;;;;13.93;100.00;97727.81;5052764;28;20186;-63
2023/05/17 04:24:39;;;;;;;15.25;11.15;;;;;;;13.67;100.00;97674.81;5052705;28;20201;-63
2023/05/17 04:27:05;;;;;;;21.15;12.02;;;;;;;14.12;100.00;97722.53;5052936;28;20263;-63
2023/05/17 04:29:31;;;;;;;17.55;12.23;;;;;;;14.20;100.00;97755.69;5052596;28;20552;-63
2023/05/17 04:31:56;;;;;;;22.27;14.02;;;;;;;13.68;100.00;97654.81;5052581;28;20178;-63
2023/05/17 04:34:22;;;;;;;21.25;14.32;;;;;;;14.06;100.00;97730.13;5052538;28;20269;-63
2023/05/17 04:36:48;;;;;;;24.35;13.55;;;;;;;13.59;100.00;97661.69;5052149;28;20770;-63
2023/05/17 04:39:13;;;;;;;17.25;12.55;;;;;;;13.80;100.00;97679.69;5051674;28;20272;-63
2023/05/17 04:41:39;;;;;;;18.77;13.02;;;;;;;14.30;100.00;97735.66;5052346;28;20189;-63
2023/05/17 04:44:06;;;;;;;16.02;12.82;;;;;;;14.25;100.00;97717.88;5052364;28;20203;-63
2023/05/17 04:46:31;;;;;;;16.85;12.55;;;;;;;14.53;100.00;97737.69;5052086;28;20181;-63
2023/05/17 04:48:56;;;;;;;20.75;13.20;;;;;;;14.22;100.00;97679.13;5052309;28;20178;-63
2023/05/17 04:51:22;;;;;;;22.95;14.75;;;;;;;14.57;100.00;97727.84;5052296;28;20177;-63
2023/05/17 04:53:47;;;;;;;25.75;16.67;;;;;;;14.71;100.00;97738.56;5051812;28;20186;-62
2023/05/17 04:56:13;;;;;;;27.33;16.73;;;;;;;14.34;100.00;97669.34;5051872;28;20275;-62
2023/05/17 04:58:38;;;;;;;25.52;15.90;;;;;;;14.50;100.00;97682.50;5051829;28;20169;-62
2023/05/17 05:01:04;;;;;;;22.85;15.10;;;;;;;14.94;100.00;97744.97;5052140;28;20174;-62
2023/05/17 05:03:30;;;;;;;27.38;17.65;;;;;;;14.62;100.00;97695.19;5052137;28;20239;-62
2023/05/17 05:05:55;;;;;;;27.60;17.70;;;;;;;15.05;100.00;97759.59;5052156;28;20189;-62
2023/05/17 05:08:21;;;;;;;26.48;18.05;;;;;;;14.72;100.00;97713.34;5051030;28;20227;-62
2023/05/17 05:10:46;;;;;;;30.65;19.38;;;;;;;14.63;100.00;97706.44;5052061;28;20691;-62
2023/05/17 05:13:11;;;;;;;27.83;19.60;;;;;;;14.83;100.00;97726.97;5051856;28;20174;-62
2023/05/17 05:15:37;;;;;;;33.05;19.77;;;;;;;14.82;100.00;97707.09;5051776;28;20292;-62
2023/05/17 05:18:02;;;;;;;29.42;20.30;;;;;;;14.72;100.00;97679.47;5051624;28;20166;-63
2023/05/17 05:20:28;;;;;;;36.38;22.45;;;;;;;15.28;100.00;97755.56;5051546;28;20714;-62
2023/05/17 05:22:53;;;;;;;37.67;22.38;;;;;;;15.32;100.00;97756.88;5051747;28;20269;-63
2023/05/17 05:25:19;;;;;;;38.22;22.88;;;;;;;15.07;100.00;97695.09;5051958;28;20537;-63
2023/05/17 05:27:44;;;;;;;41.78;21.40;;;;;;;15.41;100.00;97737.78;5051628;28;20573;-63
2023/05/17 05:30:11;;;;;;;36.33;18.95;;;;;;;15.40;100.00;97728.31;5051940;28;20214;-62
2023/05/17 05:32:36;;;;;;;26.92;17.40;;;;;;;15.49;100.00;97711.75;5051832;28;20169;-63
2023/05/17 05:35:04;;;;;;;27.23;16.40;;;;;;;15.48;100.00;97691.88;5051539;28;20571;-63
2023/05/17 05:37:30;;;;;;;23.00;16.83;;;;;;;15.58;100.00;97701.22;5051864;28;20710;-63
2023/05/17 05:39:55;;;;;;;24.35;17.10;;;;;;;15.72;100.00;97729.38;5051683;28;20264;-63
2023/05/17 05:42:20;;;;;;;29.95;17.40;;;;;;;15.35;100.00;97671.44;5051886;28;20178;-63
2023/05/17 05:44:46;;;;;;;28.23;19.02;;;;;;;15.29;100.00;97674.59;5051518;28;20231;-63
2023/05/17 05:47:11;;;;;;;30.15;17.00;;;;;;;15.20;100.00;97659.06;5051712;28;20553;-62
2023/05/17 05:49:37;;;;;;;31.05;18.77;;;;;;;15.74;100.00;97743.06;5051514;28;20206;-62
2023/05/17 05:52:02;;;;;;;26.98;17.25;;;;;;;15.77;100.00;97727.13;5054543;28;20166;-64
2023/05/17 05:54:27;;;;;;;24.35;16.80;;;;;;;15.47;100.00;97677.22;5055633;28;20223;-63
2023/05/17 05:56:54;;;;;;;27.23;16.90;;;;;;;15.85;100.00;97727.16;5054744;28;20193;-62
2023/05/17 05:59:19;;;;;;;27.27;17.08;;;;;;;15.67;100.00;97683.84;5055343;28;20201;-62
2023/05/17 06:01:44;;;;;;;23.98;15.23;;;;;;;15.51;100.00;97647.25;5055416;28;20181;-63
2023/05/17 06:04:10;;;;;;;23.92;15.32;;;;;;;15.73;100.00;97670.19;5055415;28;20256;-63
2023/05/17 06:06:35;;;;;;;23.55;14.70;;;;;;;16.09;100.00;97716.06;5055367;28;20242;-63
2023/05/17 06:09:01;;;;;;;29.20;15.73;;;;;;;15.75;100.00;97656.00;5055300;28;20632;-63
2023/05/17 06:11:27;;;;;;;22.67;14.27;;;;;;;16.10;100.00;97707.25;5055204;28;20213;-63
2023/05/17 06:13:55;;;;;;;20.45;12.15;;;;;;;16.21;100.00;97740.91;5054934;28;20185;-63
2023/05/17 06:16:20;;;;;;;28.58;13.57;;;;;;;16.10;100.00;97707.25;5055075;28;20267;-63
2023/05/17 06:18:46;;;;;;;22.42;12.90;;;;;;;16.19;100.00;97708.91;5055131;28;20185;-62
2023/05/17 06:21:14;;;;;;;19.42;12.57;;;;;;;16.04;100.00;97676.56;5055100;28;20177;-63
2023/05/17 06:23:40;;;;;;;15.32;11.82;;;;;;;16.49;100.00;97739.75;5055066;28;20220;-63
2023/05/17 06:26:09;;;;;;;20.42;12.52;;;;;;;16.67;100.00;97762.16;5055037;28;20264;-63
2023/05/17 06:28:34;;;;;;;18.42;11.75;;;;;;;16.32;100.00;97691.81;5054958;28;20386;-62
2023/05/17 06:31:00;;;;;;;18.33;12.05;;;;;;;16.72;100.00;97757.28;5054915;28;20527;-63
2023/05/17 06:33:25;;;;;;;23.45;13.60;;;;;;;16.64;100.00;97728.53;5054599;28;20169;-63
2023/05/17 06:35:51;;;;;;;20.25;14.02;;;;;;;16.79;100.00;97737.38;5054739;28;20748;-63
2023/05/17 06:38:16;;;;;;;21.80;13.50;;;;;;;16.53;100.00;97699.28;5054740;28;20184;-63
2023/05/17 06:40:41;;;;;;;19.73;12.52;;;;;;;16.50;100.00;97700.41;5054690;28;20220;-63
2023/05/17 06:43:07;;;;;;;22.35;13.15;;;;;;;16.92;100.00;97763.84;5054696;28;20703;-63
2023/05/17 06:45:32;;;;;;;23.42;12.93;;;;;;;16.79;100.00;97739.19;5054617;28;20173;-63
2023/05/17 06:47:57;;;;;;;19.80;12.50;;;;;;;17.01;100.00;97775.16;5054555;28;20189;-63
2023/05/17 06:50:25;;;;;;;17.88;12.85;;;;;;;17.05;100.00;97784.31;5054565;28;20640;-63
2023/05/17 06:52:51;;;;;;;22.48;12.65;;;;;;;16.98;100.00;97784.16;5054538;28;20184;-63
2023/05/17 06:55:16;;;;;;;16.70;11.93;;;;;;;17.04;100.00;97788.75;5053851;28;20197;-63
2023/05/17 06:57:41;;;;;;;24.35;12.70;;;;;;;17.07;100.00;97782.34;5054143;28;20189;-63
2023/05/17 07:00:09;;;;;;;19.55;11.27;;;;;;;17.11;100.00;97788.91;5054418;28;20574;-63
2023/05/17 07:02:35;;;;;;;22.20;12.48;;;;;;;17.07;100.00;97792.81;5053738;28;20188;-63
2023/05/17 07:05:01;;;;;;;19.08;11.90;;;;;;;16.64;100.00;97722.47;5054052;28;20169;-64
2023/05/17 07:07:26;;;;;;;17.70;12.13;;;;;;;16.93;100.00;97765.53;5053977;28;20177;-63
2023/05/17 07:09:52;;;;;;;19.63;12.10;;;;;;;17.09;100.00;97791.69;5054007;28;20173;-63
2023/05/17 07:12:17;;;;;;;24.02;12.60;;;;;;;17.12;100.00;97796.59;5053941;28;20192;-63
2023/05/17 07:14:43;;;;;;;18.08;13.05;;;;;;;16.87;100.00;97749.66;5053178;28;20181;-62
2023/05/17 07:17:10;;;;;;;20.23;13.75;;;;;;;17.02;100.00;97779.44;5053743;28;20563;-62
2023/05/17 07:19:35;;;;;;;21.80;14.88;;;;;;;16.91;100.00;97756.22;5053649;28;20256;-62
2023/05/17 07:22:01;;;;;;;27.65;16.15;;;;;;;17.08;100.00;97765.72;5053510;28;20560;-62
2023/05/17 07:24:26;;;;;;;31.33;22.15;;;;;;;16.84;100.00;97729.09;5053535;28;20177;-62
2023/05/17 07:26:51;;;;;;;28.55;18.52;;;;;;;17.17;100.00;97796.09;5051246;28;20292;-62
2023/05/17 07:29:19;;;;;;;26.83;16.35;;;;;;;16.82;100.00;97716.19;5051391;28;20272;-62
2023/05/17 07:31:45;;;;;;;26.33;16.85;;;;;;;16.80;100.00;97727.75;5050306;28;20326;-62
2023/05/17 07:34:10;;;;;;;28.52;18.05;;;;;;;16.67;100.00;97741.28;5051006;28;20604;-62
2023/05/17 07:36:35;;;;;;;33.63;19.00;;;;;;;16.81;100.00;97758.97;5050877;28;20197;-62
2023/05/17 07:39:01;;;;;;;33.78;18.85;;;;;;;16.80;100.00;97757.31;5051125;28;20208;-62
2023/05/17 07:41:26;;;;;;;30.95;18.23;;;;;;;17.06;100.00;97797.25;5050393;28;20268;-62
2023/05/17 07:43:52;;;;;;;28.27;17.33;;;;;;;17.12;100.00;97801.81;5050581;28;20270;-62
2023/05/17 07:46:17;;;;;;;39.28;18.80;;;;;;;16.92;100.00;97799.66;5051074;28;20303;-62
2023/05/17 07:48:43;;;;;;;31.80;21.63;;;;;;;16.73;100.00;97769.38;5050909;28;20242;-62
2023/05/17 07:51:08;;;;;;;32.75;19.65;;;;;;;16.85;100.00;97789.00;5051044;28;20312;-63
2023/05/17 07:53:34;;;;;;;28.45;19.58;;;;;;;16.67;100.00;97782.25;5050955;28;20173;-62
2023/05/17 07:55:59;;;;;;;33.40;22.40;;;;;;;16.86;100.00;97816.75;5050581;28;20205;-62
2023/05/17 07:58:24;;;;;;;34.83;21.23;;;;;;;16.89;100.00;97818.25;5050389;28;20195;-62
2023/05/17 08:00:50;;;;;;;32.65;20.27;;;;;;;16.44;100.00;97727.16;5049621;28;20177;-62
2023/05/17 08:03:15;;;;;;;32.90;20.90;;;;;;;16.78;100.00;97771.50;5050673;28;20621;-62
2023/05/17 08:05:41;;;;;;;32.60;18.77;;;;;;;16.43;100.00;97707.25;5053133;28;20177;-62
2023/05/17 08:08:06;;;;;;;25.40;17.80;;;;;;;16.47;100.00;97728.63;5053094;28;20176;-62
2023/05/17 08:10:34;;;;;;;29.95;17.67;;;;;;;16.82;100.00;97785.88;5052790;28;20174;-62
2023/05/17 08:13:00;;;;;;;28.23;19.42;;;;;;;16.46;100.00;97761.78;5052825;28;20256;-63
2023/05/17 08:15:25;;;;;;;30.80;19.75;;;;;;;16.75;100.00;97808.41;5051669;28;20284;-63
2023/05/17 08:17:51;;;;;;;32.85;19.25;;;;;;;16.63;100.00;97801.84;5050573;28;20191;-62
2023/05/17 08:20:16;;;;;;;34.15;18.63;;;;;;;16.25;100.00;97744.81;5052721;28;20529;-63
2023/05/17 08:22:42;;;;;;;30.30;19.58;;;;;;;16.01;100.00;97718.59;5052089;28;20224;-63
2023/05/17 08:25:08;;;;;;;32.55;19.95;;;;;;;15.90;100.00;97717.09;5052327;28;20173;-63
2023/05/17 08:27:33;;;;;;;31.27;20.52;;;;;;;15.66;100.00;97722.16;5052736;28;20196;-63
2023/05/17 08:29:59;;;;;;;31.60;20.13;;;;;;;15.69;100.00;97714.00;5052694;28;20177;-63
2023/05/17 08:32:25;;;;;;;31.63;19.58;;;;;;;16.06;100.00;97769.38;5052535;28;20661;-62
2023/05/17 08:34:50;;;;;;;30.70;19.80;;;;;;;16.03;100.00;97780.09;5052634;28;20173;-63
2023/05/17 08:37:17;;;;;;;37.70;21.90;;;;;;;16.04;100.00;97788.78;5051929;28;20205;-63
2023/05/17 08:39:42;;;;;;;36.85;25.15;;;;;;;15.96;100.00;97775.66;5052519;28;20174;-63
2023/05/17 08:42:08;;;;;;;39.50;25.17;;;;;;;16.10;100.00;97816.88;5052499;28;20654;-62
2023/05/17 08:44:35;;;;;;;38.70;25.40;;;;;;;15.65;100.00;97738.78;5052189;28;20173;-63
2023/05/17 08:47:02;;;;;;;39.13;24.60;;;;;;;16.11;100.00;97800.22;5052127;28;20553;-63
2023/05/17 08:49:32;;;;;;;34.85;23.63;;;;;;;16.00;100.00;97754.34;5052101;28;20244;-63
2023/05/17 08:51:59;;;;;;;34.15;21.55;;;;;;;16.24;100.00;97780.56;5052327;28;20173;-62
2023/05/17 08:54:25;;;;;;;32.55;22.20;;;;;;;16.24;100.00;97771.91;5052280;28;20265;-62
2023/05/17 08:56:53;;;;;;;41.03;22.15;;;;;;;15.86;100.00;97720.16;5052137;28;20280;-63
2023/05/17 08:59:20;;;;;;;34.60;22.35;;;;;;;15.79;100.00;97708.69;5052001;28;20277;-63
2023/05/17 09:01:51;;;;;;;39.67;26.10;;;;;;;15.91;100.00;97730.97;5051753;28;20231;-63
2023/05/17 09:04:17;;;;;;;36.67;24.52;;;;;;;15.85;100.00;97713.31;5051903;28;20699;-62
2023/05/17 09:06:43;;;;;;;39.90;25.83;;;;;;;16.10;100.00;97743.78;5052107;28;20307;-63
2023/05/17 09:09:09;;;;;;;37.47;23.15;;;;;;;16.37;100.00;97780.13;5052167;28;20173;-62
2023/05/17 09:11:34;;;;;;;36.70;22.92;;;;;;;16.25;100.00;97765.69;5052106;28;20283;-63
2023/05/17 09:14:04;;;;;;;37.78;24.33;;;;;;;16.11;100.00;97727.97;5051723;28;20682;-63
2023/05/17 09:16:32;;;;;;;39.25;24.85;;;;;;;16.18;100.00;97759.47;5051862;28;20225;-63
2023/05/17 09:18:58;;;;;;;22.85;15.65;;;;;;;16.18;100.00;97785.56;5051927;28;20472;-63
2023/05/17 09:21:25;;;;;;;21.85;14.80;;;;;;;15.69;100.00;97726.25;5052034;28;20169;-63
2023/05/17 09:23:51;;;;;;;15.93;10.50;;;;;;;15.59;100.00;97718.53;5050525;28;20713;-63
2023/05/17 09:26:17;;;;;;;16.42;12.07;;;;;;;15.53;100.00;97728.75;5053436;28;20181;-62
2023/05/17 09:28:43;;;;;;;20.05;12.15;;;;;;;15.47;100.00;97718.94;5056139;28;20177;-63
2023/05/17 09:31:12;;;;;;;20.75;12.18;;;;;;;15.67;100.00;97739.44;5056076;28;20173;-62
2023/05/17 09:33:48;;;;;;;13.52;11.15;;;;;;;15.74;100.00;97748.28;5055184;28;20691;-63
2023/05/17 09:36:19;;;;;;;15.15;12.02;;;;;;;15.66;100.00;97734.38;5055916;28;20193;-63
2023/05/17 09:38:59;;;;;;;19.38;11.82;;;;;;;15.93;100.00;97778.59;5055944;28;20231;-63
2023/05/17 09:41:29;;;;;;;18.60;12.48;;;;;;;15.81;100.00;97788.44;5055962;28;20202;-62
2023/05/17 09:44:08;;;;;;;15.88;12.20;;;;;;;15.54;100.00;97764.28;5055923;28;20182;-62
2023/05/17 09:46:33;;;;;;;26.85;15.13;;;;;;;15.52;100.00;97769.63;5055903;28;20162;-62
2023/05/17 09:49:01;;;;;;;19.45;14.05;;;;;;;15.62;100.00;97799.06;5033282;28;20715;-63
2023/05/17 09:51:37;;;;;;;19.65;14.73;;;;;;;15.35;100.00;97767.06;5033374;28;20190;-62
2023/05/17 09:54:05;;;;;;;51.60;36.15;;;;;;;15.39;100.00;97774.41;5033382;28;20256;-62
2023/05/17 09:56:31;;;;;;;35.63;21.25;;;;;;;15.51;100.00;97788.84;5033259;28;20224;-62
2023/05/17 09:59:03;;;;;;;22.27;16.77;;;;;;;15.57;100.00;97792.66;5033059;28;20732;-62
2023/05/17 10:01:30;;;;;;;19.70;13.60;;;;;;;15.21;100.00;97723.25;5033248;28;20232;-63
2023/05/17 10:04:00;;;;;;;16.92;13.25;;;;;;;15.19;100.00;97725.19;5033087;28;20205;-62
2023/05/17 10:06:28;;;;;;;24.98;16.58;;;;;;;15.46;100.00;97759.81;5033108;28;20612;-63
2023/05/17 10:08:55;;;;;;;15.93;13.05;;;;;;;15.17;100.00;97727.13;5032985;28;20210;-63
2023/05/17 10:11:27;;;;;;;19.67;12.38;;;;;;;15.65;100.00;97798.78;5033032;28;20174;-63
2023/05/17 10:14:31;;;;;;;19.75;13.68;;;;;;;15.69;100.00;97807.09;5032934;28;20664;-62
2023/05/17 10:16:57;;;;;;;18.65;12.80;;;;;;;15.34;100.00;97728.94;5032896;28;20197;-62
2023/05/17 10:19:24;;;;;;;22.27;13.82;;;;;;;15.60;100.00;97781.91;5038512;28;20194;-62
2023/05/17 10:21:51;;;;;;;21.35;13.35;;;;;;;15.26;100.00;97721.81;5055132;28;20173;-63
2023/05/17 10:24:20;;;;;;;19.45;13.35;;;;;;;15.02;100.00;97712.97;5055105;28;20586;-63
2023/05/17 10:26:47;;;;;;;19.40;13.82;;;;;;;15.27;100.00;97761.75;5055030;28;20185;-62
2023/05/17 10:29:14;;;;;;;26.58;16.60;;;;;;;15.06;100.00;97709.94;5054986;28;20236;-62
2023/05/17 10:31:42;;;;;;;21.77;14.57;;;;;;;15.38;100.00;97751.09;5054959;28;20678;-63
2023/05/17 10:34:10;;;;;;;20.70;13.95;;;;;;;15.38;100.00;97751.94;5054925;28;20173;-62
2023/05/17 10:36:36;;;;;;;23.10;15.43;;;;;;;15.31;100.00;97737.00;5054746;28;20615;-62
2023/05/17 10:39:06;;;;;;;23.08;15.23;;;;;;;15.09;100.00;97721.81;5054085;28;20238;-63
2023/05/17 10:41:33;;;;;;;22.90;15.95;;;;;;;15.19;100.00;97766.88;5055008;28;20174;-63
2023/05/17 10:44:01;;;;;;;24.60;16.40;;;;;;;15.15;100.00;97749.88;5054723;28;20252;-63
2023/05/17 10:46:29;;;;;;;16.42;12.75;;;;;;;15.39;100.00;97743.13;5054376;28;20682;-63
2023/05/17 10:48:57;;;;;;;16.60;12.32;;;;;;;15.28;100.00;97690.41;5054590;28;20220;-63
2023/05/17 10:51:28;;;;;;;20.13;13.00;;;;;;;15.73;100.00;97756.25;5054553;28;20176;-63
2023/05/17 10:54:03;;;;;;;18.83;12.55;;;;;;;15.88;100.00;97762.56;5054600;28;20231;-63
2023/05/17 10:56:30;;;;;;;19.40;13.43;;;;;;;15.74;100.00;97734.44;5054386;28;20192;-63
2023/05/17 10:59:15;;;;;;;19.50;13.57;;;;;;;15.97;100.00;97769.50;5054359;28;20285;-63
2023/05/17 11:01:49;;;;;;;16.13;11.45;;;;;;;16.06;100.00;97760.72;5054375;28;20174;-63
2023/05/17 11:04:25;;;;;;;14.82;12.07;;;;;;;15.95;100.00;97719.22;5054316;28;20599;-63
2023/05/17 11:07:16;;;;;;;15.27;12.13;;;;;;;16.28;100.00;97755.75;5054283;28;20193;-63
2023/05/17 11:10:07;;;;;;;17.55;12.77;;;;;;;15.74;100.00;97675.25;5054141;28;20185;-63
2023/05/17 11:12:41;;;;;;;19.00;13.30;;;;;;;15.72;100.00;97678.97;5054248;28;20154;-63
2023/05/17 11:15:11;;;;;;;15.32;12.98;;;;;;;15.74;100.00;97672.66;5071506;28;20577;-63